createdAt,value
2023-10-13T00:01:04.254Z,101482.28
2023-10-13T00:06:03.505Z,101494.25
2023-10-13T00:11:00.841Z,101489.03
2023-10-13T00:16:00.436Z,101487.38
2023-10-13T00:20:57.300Z,101482.19
2023-10-13T00:26:00.265Z,101491.47
2023-10-13T00:31:01.483Z,101493.75
2023-10-13T00:35:58.778Z,101506.41
2023-10-13T00:40:56.089Z,101506.41
2023-10-13T00:45:57.588Z,101501.50
2023-10-13T00:50:57.092Z,101497.91
2023-10-13T00:55:56.229Z,101502.34
2023-10-13T01:00:57.518Z,101502.59
2023-10-13T01:05:56.176Z,101504.13
2023-10-13T01:10:54.089Z,101496.59
2023-10-13T01:15:50.803Z,101496.69
2023-10-13T01:20:52.775Z,101497.94
2023-10-13T01:25:50.194Z,101495.94
2023-10-13T01:30:50.386Z,101495.22
2023-10-13T01:35:48.096Z,101485.25
2023-10-13T01:40:44.689Z,101484.59
2023-10-13T01:45:47.710Z,101485.38
2023-10-13T01:50:48.074Z,101480.88
2023-10-13T01:55:44.970Z,101467.72
2023-10-13T02:00:43.489Z,101477.66
2023-10-13T02:05:40.410Z,101477.72
2023-10-13T02:10:43.699Z,101486.16
2023-10-13T02:15:43.142Z,101482.41
2023-10-13T02:20:46.331Z,101482.81
2023-10-13T02:25:46.469Z,101488.59
2023-10-13T02:30:45.328Z,101495.56
2023-10-13T02:35:43.588Z,101490.53
2023-10-13T02:40:40.165Z,101498.03
2023-10-13T02:45:37.484Z,101507.59
2023-10-13T02:50:34.069Z,101494.31
2023-10-13T02:55:32.504Z,101496.19
2023-10-13T03:00:32.354Z,101491.94
2023-10-13T03:05:35.991Z,101490.91
2023-10-13T03:10:33.541Z,101494.59
2023-10-13T03:15:31.989Z,101494.53
2023-10-13T03:20:32.035Z,101491.41
2023-10-13T03:25:42.916Z,101490.59
2023-10-13T03:30:42.333Z,101487.03
2023-10-13T03:35:41.200Z,101479.00
2023-10-13T03:40:38.568Z,101481.97
2023-10-13T03:45:40.160Z,101478.56
2023-10-13T03:50:46.447Z,101474.56
2023-10-13T03:55:48.532Z,101484.06
2023-10-13T04:00:45.277Z,101488.09
2023-10-13T04:05:46.667Z,101483.13
2023-10-13T04:11:01.362Z,101494.34
2023-10-13T04:16:15.369Z,101505.38
2023-10-13T04:21:32.904Z,101500.31
2023-10-13T04:26:49.441Z,101506.13
2023-10-13T04:31:56.646Z,101506.03
2023-10-13T04:37:11.584Z,101506.69
2023-10-13T04:42:27.105Z,101511.47
2023-10-13T04:47:23.781Z,101515.41
2023-10-13T04:52:51.443Z,101518.97
2023-10-13T04:57:50.610Z,101539.72
2023-10-13T05:03:23.277Z,101553.22
2023-10-13T05:08:40.909Z,101555.31
2023-10-13T05:13:57.163Z,101556.09
2023-10-13T05:19:11.806Z,101558.44
2023-10-13T05:24:27.432Z,101545.59
2023-10-13T05:29:41.838Z,101559.41
2023-10-13T05:34:58.725Z,101552.09
2023-10-13T05:40:17.386Z,101553.53
2023-10-13T05:45:54.602Z,101559.31
2023-10-13T05:51:11.172Z,101555.94
2023-10-13T05:56:26.818Z,101554.81
2023-10-13T06:01:41.777Z,101564.06
2023-10-13T06:06:59.646Z,101571.13
2023-10-13T06:12:17.211Z,101578.47
2023-10-13T06:17:31.976Z,101580.84
2023-10-13T06:22:46.795Z,101592.06
2023-10-13T06:28:02.330Z,101604.38
2023-10-13T06:32:59.064Z,101602.38
2023-10-13T06:38:00.712Z,101594.44
2023-10-13T06:43:12.297Z,101594.69
2023-10-13T06:48:12.992Z,101605.19
2023-10-13T06:53:12.858Z,101604.09
2023-10-13T06:58:14.043Z,101609.72
2023-10-13T07:03:18.232Z,101603.63
2023-10-13T07:08:20.106Z,101614.88
2023-10-13T07:13:17.790Z,101619.66
2023-10-13T07:18:17.117Z,101623.75
2023-10-13T07:23:30.988Z,101621.13
2023-10-13T07:28:32.138Z,101618.09
2023-10-13T07:33:31.741Z,101623.00
2023-10-13T07:38:31.505Z,101628.00
2023-10-13T07:43:35.544Z,101615.00
2023-10-13T07:48:39.313Z,101627.84
2023-10-13T07:53:39.766Z,101618.69
2023-10-13T07:59:05.536Z,101629.72
2023-10-13T08:04:18.165Z,101632.38
2023-10-13T08:09:31.012Z,101637.09
2023-10-13T08:14:39.113Z,101632.13
2023-10-13T08:19:45.230Z,101631.91
2023-10-13T08:24:59.722Z,101616.72
2023-10-13T08:30:20.950Z,101620.28
2023-10-13T08:35:36.884Z,101626.78
2023-10-13T08:41:00.186Z,101626.13
2023-10-13T08:46:56.780Z,101631.34
2023-10-13T08:53:17.753Z,101619.59
2023-10-13T09:04:56.484Z,101611.78
2023-10-13T09:10:35.645Z,101599.41
2023-10-13T09:16:25.654Z,101606.25
2023-10-13T09:21:55.857Z,101599.69
2023-10-13T09:27:06.380Z,101602.78
2023-10-13T09:32:24.551Z,101605.09
2023-10-13T09:37:30.965Z,101612.75
2023-10-13T09:42:29.380Z,101594.44
2023-10-13T09:47:35.192Z,101615.56
2023-10-13T09:52:46.461Z,101611.72
2023-10-13T09:58:01.189Z,101606.00
2023-10-13T10:03:15.627Z,101614.88
2023-10-13T10:08:59.049Z,101594.81
2023-10-13T10:14:13.916Z,101599.47
2023-10-13T10:19:17.646Z,101592.56
2023-10-13T10:30:15.895Z,101588.88
2023-10-13T10:35:30.603Z,101589.72
2023-10-13T10:40:44.796Z,101594.84
2023-10-13T10:46:00.192Z,101588.75
2023-10-13T10:51:15.933Z,101580.44
2023-10-13T10:56:37.299Z,101571.97
2023-10-13T11:01:59.854Z,101565.75
2023-10-13T11:07:00.520Z,101561.84
2023-10-13T11:12:15.480Z,101563.56
2023-10-13T11:17:25.158Z,101562.31
2023-10-13T11:22:54.292Z,101559.88
2023-10-13T11:33:32.479Z,101553.44
2023-10-13T11:38:45.243Z,101548.69
2023-10-13T11:44:20.013Z,101541.59
2023-10-13T11:49:33.066Z,101525.69
2023-10-13T11:54:34.875Z,101532.75
2023-10-13T11:59:41.442Z,101532.22
2023-10-13T12:04:49.578Z,101530.28
2023-10-13T12:10:22.247Z,101528.81
2023-10-13T12:15:41.922Z,101528.31
2023-10-13T12:20:58.138Z,101519.72
2023-10-13T12:26:00.443Z,101520.56
2023-10-13T12:31:06.271Z,101514.16
2023-10-13T12:36:23.101Z,101519.00
2023-10-13T12:41:57.294Z,101535.09
2023-10-13T12:47:24.971Z,101541.63
2023-10-13T12:52:28.453Z,101547.09
2023-10-13T12:57:33.424Z,101544.06
2023-10-13T13:02:51.774Z,101533.78
2023-10-13T13:07:55.388Z,101528.94
2023-10-13T13:13:07.768Z,101532.22
2023-10-13T13:18:16.041Z,101539.28
2023-10-13T13:23:20.915Z,101535.88
2023-10-13T13:28:18.816Z,101532.88
2023-10-13T13:33:35.791Z,101527.75
2023-10-13T13:38:41.850Z,101528.22
2023-10-13T13:43:46.119Z,101521.19
2023-10-13T13:48:59.900Z,101523.44
2023-10-13T13:54:02.119Z,101518.66
2023-10-13T13:59:10.409Z,101516.06
2023-10-13T14:04:23.987Z,101520.91
2023-10-13T14:09:43.874Z,101520.84
2023-10-13T14:14:51.871Z,101536.78
2023-10-13T14:20:00.060Z,101530.38
2023-10-13T14:25:09.362Z,101530.13
2023-10-13T14:30:10.419Z,101525.31
2023-10-13T14:35:24.639Z,101522.34
2023-10-13T14:40:23.205Z,101518.41
2023-10-13T14:45:23.293Z,101520.47
2023-10-13T14:50:25.268Z,101514.97
2023-10-13T14:55:40.151Z,101513.13
2023-10-13T15:00:37.218Z,101524.63
2023-10-13T15:05:36.242Z,101522.19
2023-10-13T15:10:33.965Z,101540.41
2023-10-13T15:15:32.820Z,101543.41
2023-10-13T15:20:29.699Z,101540.22
2023-10-13T15:25:29.550Z,101545.03
2023-10-13T15:30:31.578Z,101535.44
2023-10-13T15:35:35.049Z,101530.91
2023-10-13T15:40:31.905Z,101532.09
2023-10-13T15:45:41.154Z,101512.13
2023-10-13T15:50:42.046Z,101524.16
2023-10-13T15:55:39.449Z,101531.13
2023-10-13T16:00:37.760Z,101523.44
2023-10-13T16:05:35.228Z,101523.84
2023-10-13T16:10:32.124Z,101532.09
2023-10-13T16:15:29.000Z,101522.38
2023-10-13T16:20:28.357Z,101539.16
2023-10-13T16:25:25.325Z,101541.59
2023-10-13T16:30:22.267Z,101546.94
2023-10-13T16:35:20.921Z,101555.94
2023-10-13T16:40:19.204Z,101555.63
2023-10-13T16:45:21.225Z,101563.97
2023-10-13T16:50:18.353Z,101571.00
2023-10-13T16:55:18.180Z,101559.16
2023-10-13T17:00:16.265Z,101566.63
2023-10-13T17:05:14.778Z,101552.41
2023-10-13T17:10:14.649Z,101564.69
2023-10-13T17:15:19.801Z,101564.28
2023-10-13T17:20:18.417Z,101556.88
2023-10-13T17:25:16.480Z,101541.75
2023-10-13T17:30:13.345Z,101557.53
2023-10-13T17:35:12.415Z,101564.06
2023-10-13T17:40:16.200Z,101566.19
2023-10-13T17:45:14.367Z,101563.44
2023-10-13T17:50:14.056Z,101557.53
2023-10-13T17:55:11.463Z,101566.25
2023-10-13T18:00:14.561Z,101567.19
2023-10-13T18:05:11.752Z,101559.47
2023-10-13T18:10:10.413Z,101567.31
2023-10-13T18:15:10.009Z,101571.41
2023-10-13T18:20:10.718Z,101577.41
2023-10-13T18:25:12.589Z,101579.72
2023-10-13T18:30:16.159Z,101586.00
2023-10-13T18:35:12.980Z,101571.44
2023-10-13T18:40:12.545Z,101579.41
2023-10-13T18:45:13.147Z,101581.97
2023-10-13T18:50:11.553Z,101583.06
2023-10-13T18:55:08.716Z,101580.63
2023-10-13T19:00:15.039Z,101589.78
2023-10-13T19:05:12.510Z,101588.84
2023-10-13T19:10:15.378Z,101590.13
2023-10-13T19:15:13.494Z,101587.03
2023-10-13T19:20:16.563Z,101594.91
2023-10-13T19:25:14.183Z,101589.03
2023-10-13T19:30:11.110Z,101589.47
2023-10-13T19:35:08.243Z,101592.88
2023-10-13T19:40:09.352Z,101591.56
2023-10-13T19:45:13.008Z,101604.06
2023-10-13T19:50:13.410Z,101600.59
2023-10-13T19:55:16.186Z,101605.97
2023-10-13T20:00:22.687Z,101606.06
2023-10-13T20:05:20.825Z,101611.59
2023-10-13T20:10:17.492Z,101608.97
2023-10-13T20:15:15.535Z,101608.13
2023-10-13T20:20:16.912Z,101605.31
2023-10-13T20:25:15.276Z,101596.81
2023-10-13T20:30:12.642Z,101608.63
2023-10-13T20:35:09.328Z,101594.44
2023-10-13T20:40:18.585Z,101589.59
2023-10-13T20:45:18.170Z,101590.94
2023-10-13T20:50:15.273Z,101589.53
2023-10-13T20:55:17.222Z,101591.47
2023-10-13T21:00:21.351Z,101591.97
2023-10-13T21:05:21.753Z,101600.31
2023-10-13T21:10:19.339Z,101603.19
2023-10-13T21:15:17.509Z,101604.25
2023-10-13T21:20:15.079Z,101599.97
2023-10-13T21:25:19.805Z,101603.41
2023-10-13T21:30:20.389Z,101604.00
2023-10-13T21:35:17.746Z,101601.78
2023-10-13T21:40:19.952Z,101595.19
2023-10-13T21:45:17.275Z,101594.66
2023-10-13T21:50:17.131Z,101582.50
2023-10-13T21:55:16.988Z,101580.34
2023-10-13T22:00:32.981Z,101575.44
2023-10-13T22:05:31.174Z,101567.47
2023-10-13T22:10:27.795Z,101570.06
2023-10-13T22:15:28.507Z,101549.38
2023-10-13T22:20:25.174Z,101563.00
2023-10-13T22:25:22.562Z,101561.13
2023-10-13T22:30:19.492Z,101566.25
2023-10-13T22:35:18.972Z,101569.03
2023-10-13T22:40:17.363Z,101571.75
2023-10-13T22:45:18.604Z,101577.94
2023-10-13T22:50:18.564Z,101577.69
2023-10-13T22:55:21.122Z,101569.41
2023-10-13T23:00:19.028Z,101580.94
2023-10-13T23:05:50.968Z,101573.00
2023-10-13T23:10:47.535Z,101558.19
2023-10-13T23:15:45.097Z,101566.00
2023-10-13T23:20:43.070Z,101569.53
2023-10-13T23:25:40.238Z,101563.06
2023-10-13T23:30:37.554Z,101557.81
2023-10-13T23:35:34.967Z,101548.13
2023-10-13T23:40:33.833Z,101538.44
2023-10-13T23:45:41.517Z,101530.22
2023-10-13T23:50:50.116Z,101534.19
2023-10-13T23:55:47.307Z,101539.31
